Time;durP1;ratioP1;P1;durP2;ratioP2;P2;SDS_P1;SDS_P2;PMS_P1;PMS_P2;Temp;Humidity;BMP_temperature;BMP_pressure;BME280_temperature;BME280_humidity;BME280_pressure;Samples;Min_cycle;Max_cycle;Signal;HPM_P1;HPM_P2
2021/08/10 00:02:26;;;;;;;7.17;6.10;;;17.90;97.20;;;;;;4936797;29;20474;-86
2021/08/10 00:04:53;;;;;;;10.33;7.23;;;17.90;97.50;;;;;;4951116;29;21061;-86
2021/08/10 00:07:19;;;;;;;12.20;7.40;;;17.80;97.80;;;;;;4955675;29;20457;-87
2021/08/10 00:09:47;;;;;;;9.10;7.00;;;17.70;98.40;;;;;;4956424;28;20450;-86
2021/08/10 00:12:14;;;;;;;9.10;6.50;;;17.80;98.60;;;;;;4937342;29;20892;-86
2021/08/10 00:14:41;;;;;;;8.80;6.60;;;17.80;98.70;;;;;;4938508;29;20462;-86
2021/08/10 00:17:08;;;;;;;6.60;5.80;;;17.70;98.90;;;;;;4954801;29;20462;-86
2021/08/10 00:19:34;;;;;;;7.43;6.63;;;17.70;98.90;;;;;;4955572;28;20481;-86
2021/08/10 00:22:01;;;;;;;9.13;6.60;;;17.70;99.10;;;;;;4955991;28;20454;-86
2021/08/10 00:24:28;;;;;;;8.37;7.17;;;17.60;99.60;;;;;;4948636;28;20534;-86
2021/08/10 00:26:56;;;;;;;8.37;6.60;;;17.50;99.60;;;;;;4940852;29;20500;-86
2021/08/10 00:29:22;;;;;;;7.70;6.40;;;17.30;99.90;;;;;;4939763;29;20842;-87
2021/08/10 00:31:49;;;;;;;11.30;7.17;;;17.30;99.90;;;;;;4936182;29;20454;-86
2021/08/10 00:34:16;;;;;;;7.90;6.30;;;17.20;99.90;;;;;;4936487;29;20449;-86
2021/08/10 00:36:42;;;;;;;10.10;6.20;;;17.30;99.90;;;;;;4949557;28;20445;-87
2021/08/10 00:39:09;;;;;;;8.50;6.30;;;17.30;99.90;;;;;;4959907;28;20469;-86
2021/08/10 00:41:36;;;;;;;9.23;5.50;;;17.30;99.90;;;;;;4960533;29;20453;-87
2021/08/10 00:44:04;;;;;;;7.27;5.60;;;17.30;99.90;;;;;;4937509;29;20474;-86
2021/08/10 00:46:31;;;;;;;7.23;4.77;;;17.30;99.90;;;;;;4941336;29;20492;-87
2021/08/10 00:48:58;;;;;;;9.53;5.63;;;17.20;99.90;;;;;;4960238;28;20512;-86
2021/08/10 00:51:26;;;;;;;5.20;4.73;;;17.20;99.90;;;;;;4957304;28;20437;-86
2021/08/10 00:53:53;;;;;;;7.00;4.83;;;17.10;99.90;;;;;;4952624;29;20466;-87
2021/08/10 00:56:20;;;;;;;6.30;5.77;;;17.10;99.90;;;;;;4969597;28;20452;-86
2021/08/10 00:58:47;;;;;;;8.57;6.40;;;17.00;99.90;;;;;;4954967;29;20454;-87
2021/08/10 01:01:16;;;;;;;7.00;6.30;;;17.00;99.90;;;;;;4940352;29;21180;-87
2021/08/10 01:03:42;;;;;;;12.20;7.43;;;17.00;99.90;;;;;;4938426;29;20952;-87
2021/08/10 01:06:16;;;;;;;10.33;6.60;;;17.00;99.90;;;;;;4950969;28;21013;-86
2021/08/10 01:08:52;;;;;;;8.97;6.30;;;17.00;99.90;;;;;;4955408;28;21030;-86
2021/08/10 01:11:33;;;;;;;11.33;6.50;;;16.90;99.90;;;;;;4956244;28;20453;-86
2021/08/10 01:14:08;;;;;;;6.97;5.77;;;16.90;99.90;;;;;;4957930;28;20480;-86
2021/08/10 01:16:42;;;;;;;11.80;7.27;;;16.80;99.90;;;;;;4955514;28;20500;-87
2021/08/10 01:19:35;;;;;;;9.13;5.93;;;16.80;99.90;;;;;;4954880;28;20838;-86
2021/08/10 01:22:04;;;;;;;9.77;6.90;;;16.70;99.90;;;;;;4936551;29;20453;-86
2021/08/10 01:24:35;;;;;;;7.50;6.33;;;16.60;99.90;;;;;;4935962;29;20874;-86
2021/08/10 01:27:19;;;;;;;6.60;5.10;;;16.60;99.90;;;;;;4935532;29;20540;-86
2021/08/10 01:29:53;;;;;;;7.80;6.17;;;16.60;99.90;;;;;;4935514;29;20458;-91
2021/08/10 01:34:51;;;;;;;11.37;6.30;;;16.50;99.90;;;;;;4952706;29;20469;-90
2021/08/10 01:37:26;;;;;;;10.30;7.00;;;16.50;99.90;;;;;;4958381;29;20448;-90
2021/08/10 01:39:56;;;;;;;10.40;6.67;;;16.50;99.90;;;;;;4957447;29;20448;-90
2021/08/10 01:42:25;;;;;;;13.77;7.37;;;16.50;99.90;;;;;;4939392;29;20481;-90
2021/08/10 01:44:54;;;;;;;10.67;7.80;;;16.50;99.90;;;;;;4942428;29;20460;-90
2021/08/10 01:47:23;;;;;;;8.60;7.40;;;16.50;99.90;;;;;;4961081;29;20484;-94
2021/08/10 01:49:52;;;;;;;12.13;8.03;;;16.50;99.90;;;;;;4970831;28;20536;-91
2021/08/10 01:52:22;;;;;;;10.30;7.63;;;16.50;99.90;;;;;;4945824;29;20458;-90
2021/08/10 01:54:54;;;;;;;7.67;6.70;;;16.50;99.90;;;;;;4950765;29;20482;-89
2021/08/10 01:57:23;;;;;;;9.17;7.00;;;16.60;99.90;;;;;;4963191;29;20512;-91
2021/08/10 01:59:53;;;;;;;9.73;6.60;;;16.50;99.90;;;;;;4958277;28;20889;-90
2021/08/10 02:02:23;;;;;;;10.70;6.50;;;16.50;99.90;;;;;;4959674;29;20467;-90
2021/08/10 02:04:52;;;;;;;7.30;6.33;;;16.50;99.90;;;;;;4965276;28;20550;-90
2021/08/10 02:07:20;;;;;;;7.43;6.63;;;16.40;99.90;;;;;;4960932;28;20504;-90
2021/08/10 02:09:48;;;;;;;9.40;6.80;;;16.30;99.90;;;;;;4961549;28;20452;-90
2021/08/10 02:12:16;;;;;;;9.33;7.17;;;16.20;99.90;;;;;;4962495;29;20478;-91
2021/08/10 02:14:45;;;;;;;7.80;6.30;;;16.20;99.90;;;;;;4961110;29;20555;-90
2021/08/10 02:17:17;;;;;;;10.10;7.00;;;16.10;99.90;;;;;;4962235;29;20949;-89
2021/08/10 02:19:44;;;;;;;10.43;6.20;;;16.20;99.90;;;;;;4960613;28;20810;-90
2021/08/10 02:22:15;;;;;;;7.73;5.87;;;16.20;99.90;;;;;;4960852;29;20452;-90
2021/08/10 02:24:47;;;;;;;8.20;6.20;;;16.20;99.90;;;;;;4966319;29;20483;-91
2021/08/10 02:27:22;;;;;;;9.10;7.40;;;16.20;99.90;;;;;;4982872;28;20491;-93
2021/08/10 03:06:52;;;;;;;10.03;7.30;;;15.90;99.90;;;;;;4959595;29;20473;-91
2021/08/10 03:09:19;;;;;;;7.23;6.00;;;15.80;99.90;;;;;;4959428;29;20484;-92
2021/08/10 03:11:47;;;;;;;9.80;6.67;;;15.80;99.90;;;;;;4959289;29;20457;-92
2021/08/10 03:14:14;;;;;;;8.90;6.30;;;15.80;99.90;;;;;;4959323;28;20483;-92
2021/08/10 03:16:43;;;;;;;8.30;6.87;;;15.80;99.90;;;;;;4958985;29;20459;-92
2021/08/10 03:19:13;;;;;;;9.10;6.20;;;15.80;99.90;;;;;;4945575;29;20458;-92
2021/08/10 03:21:44;;;;;;;8.53;6.90;;;15.80;99.90;;;;;;4940041;29;20454;-92
2021/08/10 03:24:13;;;;;;;9.20;7.73;;;15.70;99.90;;;;;;4939811;29;20560;-91
2021/08/10 03:26:42;;;;;;;10.30;7.47;;;15.70;99.90;;;;;;4942061;29;20552;-93
2021/08/10 03:29:10;;;;;;;9.23;7.33;;;15.70;99.90;;;;;;4955975;29;20480;-92
2021/08/10 03:31:40;;;;;;;9.80;6.33;;;15.70;99.90;;;;;;4958347;29;20452;-92
2021/08/10 03:34:07;;;;;;;8.90;8.00;;;15.60;99.90;;;;;;4958427;29;20982;-92
2021/08/10 03:36:36;;;;;;;8.23;7.10;;;15.60;99.90;;;;;;4960280;28;20452;-92
2021/08/10 03:39:13;;;;;;;13.00;7.80;;;15.60;99.90;;;;;;4952086;29;20453;-91
2021/08/10 03:41:41;;;;;;;8.70;6.40;;;15.60;99.90;;;;;;4947837;29;20540;-92
2021/08/10 03:44:08;;;;;;;10.10;7.70;;;15.70;99.90;;;;;;4952118;29;20452;-92
2021/08/10 03:46:35;;;;;;;11.50;8.27;;;15.60;99.90;;;;;;4944947;29;20505;-92
2021/08/10 03:49:02;;;;;;;9.60;6.73;;;15.50;99.90;;;;;;4943228;29;20452;-91
2021/08/10 03:51:30;;;;;;;9.13;7.63;;;15.50;99.90;;;;;;4963271;29;20460;-91
2021/08/10 03:54:00;;;;;;;9.70;6.93;;;15.50;99.90;;;;;;4978902;28;20449;-91
2021/08/10 03:56:28;;;;;;;8.33;5.70;;;15.60;99.90;;;;;;4980820;28;20516;-92
2021/08/10 03:58:57;;;;;;;8.80;6.30;;;15.50;99.90;;;;;;4970267;28;20484;-93
2021/08/10 04:01:26;;;;;;;10.27;6.60;;;15.50;99.90;;;;;;4964015;29;21017;-92
2021/08/10 04:03:56;;;;;;;6.87;5.63;;;15.50;99.90;;;;;;4975642;29;20554;-93
2021/08/10 04:06:24;;;;;;;11.20;7.90;;;15.60;99.90;;;;;;4966310;28;20564;-92
2021/08/10 04:08:52;;;;;;;6.43;5.70;;;15.50;99.90;;;;;;4959749;29;20532;-92
2021/08/10 04:11:22;;;;;;;7.93;6.23;;;15.50;99.90;;;;;;4977934;28;20499;-92
2021/08/10 04:13:50;;;;;;;10.93;5.90;;;15.60;99.90;;;;;;4980452;28;20473;-93
2021/08/10 04:16:19;;;;;;;6.00;5.10;;;15.60;99.90;;;;;;4981241;28;20472;-93
2021/08/10 04:18:49;;;;;;;10.87;6.87;;;15.60;99.90;;;;;;5283972;23;20518;-94
2021/08/10 04:21:20;;;;;;;13.80;5.70;;;15.70;99.90;;;;;;4981889;28;20441;-92
2021/08/10 04:23:49;;;;;;;9.87;6.13;;;15.70;99.90;;;;;;4959332;28;20475;-92
2021/08/10 04:26:16;;;;;;;6.23;5.03;;;15.70;99.90;;;;;;4941629;29;20572;-90
2021/08/10 04:28:45;;;;;;;5.87;5.20;;;15.70;99.90;;;;;;4955990;29;20453;-90
2021/08/10 04:31:16;;;;;;;8.77;6.67;;;15.80;99.90;;;;;;4959283;29;20480;-90
2021/08/10 04:33:42;;;;;;;8.30;6.10;;;15.80;99.90;;;;;;4962786;28;20472;-91
2021/08/10 04:36:10;;;;;;;7.60;5.90;;;15.90;99.90;;;;;;4958662;29;20544;-92
2021/08/10 04:38:42;;;;;;;9.60;6.40;;;15.90;99.90;;;;;;4957287;29;20463;-91
2021/08/10 04:41:09;;;;;;;7.20;5.70;;;15.90;99.90;;;;;;4964981;29;20467;-91
2021/08/10 04:43:36;;;;;;;8.63;6.50;;;16.00;99.90;;;;;;4953350;29;20529;-91
2021/08/10 04:46:04;;;;;;;6.57;5.80;;;16.00;99.90;;;;;;4965281;29;20449;-90
2021/08/10 04:48:31;;;;;;;6.33;5.73;;;16.00;99.90;;;;;;4962294;29;20516;-92
2021/08/10 04:50:58;;;;;;;8.60;6.03;;;16.10;99.90;;;;;;4945882;28;20545;-91
2021/08/10 04:53:26;;;;;;;7.27;6.30;;;16.00;99.90;;;;;;4938748;29;20477;-91
2021/08/10 04:55:52;;;;;;;10.43;6.30;;;16.10;99.90;;;;;;4938597;29;20471;-91
2021/08/10 04:58:19;;;;;;;7.93;6.80;;;16.10;99.90;;;;;;4947926;29;20445;-92
2021/08/10 05:00:48;;;;;;;10.57;6.23;;;16.10;99.90;;;;;;4960637;29;20469;-94
2021/08/10 05:03:16;;;;;;;7.40;6.27;;;16.10;99.90;;;;;;4960714;29;20476;-94
2021/08/10 05:05:43;;;;;;;8.10;5.87;;;16.20;99.90;;;;;;4970769;28;20433;-94
2021/08/10 05:08:10;;;;;;;9.53;6.27;;;16.20;99.90;;;;;;4964768;28;20532;-93
2021/08/10 05:10:37;;;;;;;8.70;6.33;;;16.20;99.90;;;;;;4960732;29;20484;-93
2021/08/10 05:13:04;;;;;;;9.53;7.07;;;16.30;99.90;;;;;;4971457;28;20469;-91
2021/08/10 05:15:32;;;;;;;10.90;7.17;;;16.30;99.90;;;;;;4979465;28;20768;-92
2021/08/10 05:17:58;;;;;;;9.70;6.50;;;16.40;99.90;;;;;;4968149;28;20517;-91
2021/08/10 05:20:27;;;;;;;7.67;6.80;;;16.50;99.90;;;;;;4953554;29;20471;-91
2021/08/10 05:22:54;;;;;;;10.00;6.63;;;16.50;99.90;;;;;;4939846;29;20480;-90
2021/08/10 05:25:21;;;;;;;12.10;6.80;;;16.60;99.90;;;;;;4939311;29;20454;-91
2021/08/10 05:27:48;;;;;;;8.90;5.93;;;16.60;99.90;;;;;;4940507;29;20541;-90
2021/08/10 05:30:16;;;;;;;13.40;7.10;;;16.60;99.90;;;;;;4952802;29;20456;-91
2021/08/10 05:32:43;;;;;;;10.77;6.70;;;16.70;99.90;;;;;;4957786;29;20543;-91
2021/08/10 05:35:13;;;;;;;9.50;6.20;;;16.70;99.90;;;;;;4958445;29;20458;-91
2021/08/10 05:37:41;;;;;;;10.13;6.17;;;16.80;99.90;;;;;;4958610;29;20461;-91
2021/08/10 05:40:09;;;;;;;8.40;7.00;;;16.80;99.90;;;;;;4974860;28;20512;-90
2021/08/10 05:42:37;;;;;;;6.93;5.93;;;16.90;99.90;;;;;;4978460;29;20453;-92
2021/08/10 05:45:05;;;;;;;8.63;6.00;;;16.90;99.90;;;;;;4976814;28;20603;-92
2021/08/10 05:47:32;;;;;;;8.87;6.33;;;17.00;99.90;;;;;;4966805;29;20548;-91
2021/08/10 05:49:59;;;;;;;10.80;7.40;;;17.10;99.90;;;;;;4967380;28;20436;-92
2021/08/10 05:52:29;;;;;;;8.17;7.30;;;17.10;99.90;;;;;;4979834;28;20762;-92
2021/08/10 05:54:58;;;;;;;9.70;6.97;;;17.20;99.90;;;;;;4968878;28;20438;-93
2021/08/10 05:57:27;;;;;;;9.53;7.17;;;17.20;99.90;;;;;;4960419;29;20451;-93
2021/08/10 05:59:54;;;;;;;8.60;7.77;;;17.30;99.90;;;;;;5025692;23;20507;-93
2021/08/10 06:02:21;;;;;;;11.60;8.50;;;17.40;99.90;;;;;;4996005;28;20474;-93
2021/08/10 06:04:53;;;;;;;10.97;7.43;;;17.40;99.90;;;;;;4968387;28;20471;-92
2021/08/10 06:07:22;;;;;;;13.03;8.60;;;17.50;99.90;;;;;;4953827;29;20477;-91
2021/08/10 06:09:55;;;;;;;12.93;9.57;;;17.60;99.90;;;;;;4968627;29;20537;-92
2021/08/10 06:12:23;;;;;;;13.47;9.23;;;17.60;99.90;;;;;;4964309;28;20467;-90
2021/08/10 06:14:50;;;;;;;11.30;8.50;;;17.70;99.90;;;;;;4968273;28;20476;-89
2021/08/10 06:17:16;;;;;;;12.77;8.23;;;17.70;99.90;;;;;;4945432;29;20455;-90
2021/08/10 06:19:43;;;;;;;15.50;7.97;;;17.70;99.90;;;;;;4951653;29;20446;-88
2021/08/10 06:22:10;;;;;;;10.77;8.23;;;17.70;99.90;;;;;;4953585;29;20442;-90
2021/08/10 06:24:37;;;;;;;13.37;8.63;;;17.80;99.90;;;;;;4952190;28;20476;-89
2021/08/10 06:27:04;;;;;;;9.70;8.10;;;17.80;99.90;;;;;;4970120;28;20473;-88
2021/08/10 06:29:34;;;;;;;16.47;8.60;;;17.90;99.90;;;;;;4968838;28;20440;-89
2021/08/10 06:32:01;;;;;;;11.40;8.50;;;18.00;99.90;;;;;;4943351;29;20440;-90
2021/08/10 06:34:30;;;;;;;12.07;8.60;;;18.10;99.90;;;;;;4946821;28;20870;-90
2021/08/10 06:37:00;;;;;;;11.73;8.27;;;18.20;99.90;;;;;;4960048;28;20452;-91
2021/08/10 06:39:29;;;;;;;11.23;7.60;;;18.20;99.90;;;;;;4960307;28;20461;-91
2021/08/10 06:41:56;;;;;;;8.90;6.67;;;18.30;99.90;;;;;;4958643;28;20532;-90
2021/08/10 06:44:25;;;;;;;9.13;8.30;;;18.50;99.90;;;;;;4953767;28;20555;-91
2021/08/10 06:46:56;;;;;;;12.77;8.87;;;19.00;99.90;;;;;;4940362;29;20488;-90
2021/08/10 06:49:26;;;;;;;10.17;6.37;;;19.50;99.90;;;;;;4941720;28;20488;-89
2021/08/10 06:51:56;;;;;;;8.73;6.43;;;20.00;99.90;;;;;;4940475;28;20502;-90
2021/08/10 06:54:23;;;;;;;10.60;7.30;;;21.20;99.90;;;;;;4957657;28;20461;-91
2021/08/10 06:56:53;;;;;;;7.60;6.53;;;22.40;99.50;;;;;;4959345;28;20561;-92
2021/08/10 06:59:23;;;;;;;7.80;6.63;;;23.60;97.00;;;;;;4961643;29;20568;-91
2021/08/10 07:01:59;;;;;;;7.47;6.33;;;24.10;94.60;;;;;;4963423;28;20537;-90
2021/08/10 07:04:35;;;;;;;13.03;7.83;;;23.90;93.40;;;;;;4952238;28;20464;-89
2021/08/10 07:07:02;;;;;;;8.63;7.20;;;23.60;93.90;;;;;;4963517;28;20552;-90
2021/08/10 07:09:29;;;;;;;8.03;7.10;;;23.60;93.80;;;;;;4961649;28;20448;-90
2021/08/10 07:11:56;;;;;;;10.53;6.77;;;23.30;93.80;;;;;;4964815;28;20463;-89
2021/08/10 07:14:30;;;;;;;6.97;5.33;;;23.20;94.20;;;;;;4973217;28;20452;-89
2021/08/10 07:19:42;;;;;;;14.53;5.73;;;22.20;95.00;;;;;;4945973;29;20450;-83
2021/08/10 07:22:08;;;;;;;8.83;7.20;;;21.90;95.80;;;;;;4956816;28;20490;-83
2021/08/10 07:24:35;;;;;;;8.07;6.47;;;21.70;96.50;;;;;;4945479;29;20472;-83
2021/08/10 07:27:02;;;;;;;7.27;6.33;;;21.90;96.80;;;;;;4946864;29;20466;-87
2021/08/10 07:29:29;;;;;;;14.80;6.60;;;21.90;96.60;;;;;;4943579;29;20571;-87
2021/08/10 07:31:56;;;;;;;6.30;5.20;;;21.80;96.70;;;;;;4940454;29;20553;-86
2021/08/10 07:34:23;;;;;;;7.60;5.33;;;21.60;96.90;;;;;;4978550;23;20497;-89
2021/08/10 07:36:51;;;;;;;9.57;6.50;;;21.50;97.20;;;;;;4992480;28;20551;-89
2021/08/10 07:39:18;;;;;;;8.07;5.80;;;21.50;97.30;;;;;;4971036;28;20963;-89
2021/08/10 07:41:45;;;;;;;9.27;5.70;;;21.50;97.70;;;;;;4957619;29;20487;-89
2021/08/10 07:44:11;;;;;;;8.00;5.10;;;21.70;97.60;;;;;;4945750;29;20480;-89
2021/08/10 07:46:38;;;;;;;13.50;5.37;;;21.80;97.50;;;;;;4938058;29;20454;-89
2021/08/10 07:49:05;;;;;;;9.67;5.50;;;22.00;97.30;;;;;;4942628;29;20473;-89
2021/08/10 07:51:32;;;;;;;7.67;4.93;;;22.50;96.60;;;;;;4953216;29;20455;-89
2021/08/10 07:54:00;;;;;;;13.47;5.03;;;23.20;95.40;;;;;;4938530;29;21022;-89
2021/08/10 07:56:27;;;;;;;9.53;4.30;;;23.80;94.60;;;;;;4937377;29;20456;-89
2021/08/10 07:58:53;;;;;;;7.53;5.20;;;24.10;94.20;;;;;;4941156;29;20453;-89
2021/08/10 08:01:20;;;;;;;9.50;5.80;;;25.00;92.70;;;;;;4957715;29;20476;-88
2021/08/10 08:03:47;;;;;;;9.70;5.33;;;24.80;92.10;;;;;;4956822;29;20469;-89
2021/08/10 08:06:13;;;;;;;5.10;4.60;;;24.30;92.30;;;;;;4944855;29;20458;-89
2021/08/10 08:08:41;;;;;;;10.10;5.50;;;23.70;93.40;;;;;;4936361;29;20492;-90
2021/08/10 08:11:09;;;;;;;7.43;6.23;;;23.30;93.90;;;;;;4938685;29;20459;-90
2021/08/10 08:13:35;;;;;;;14.47;6.20;;;22.90;94.30;;;;;;4938504;29;20484;-89
2021/08/10 08:16:02;;;;;;;9.10;6.70;;;22.90;95.10;;;;;;4944324;29;20438;-88
2021/08/10 08:18:29;;;;;;;8.50;4.90;;;22.70;95.70;;;;;;4950084;29;20903;-90
2021/08/10 08:20:56;;;;;;;9.03;5.37;;;23.30;95.40;;;;;;4967961;29;20444;-88
2021/08/10 08:23:25;;;;;;;6.13;4.87;;;24.80;93.30;;;;;;4972754;29;20476;-89
2021/08/10 08:25:53;;;;;;;10.13;5.60;;;25.50;92.00;;;;;;4958014;29;20457;-89
2021/08/10 08:28:21;;;;;;;5.43;4.50;;;26.60;90.30;;;;;;4957860;28;20489;-89
2021/08/10 08:30:48;;;;;;;9.30;5.03;;;26.60;89.20;;;;;;4958159;29;20487;-89
2021/08/10 08:33:15;;;;;;;4.70;4.10;;;26.90;87.10;;;;;;4945491;29;20517;-90
2021/08/10 08:35:41;;;;;;;8.00;5.10;;;26.60;87.20;;;;;;4948379;29;20456;-90
2021/08/10 08:38:09;;;;;;;5.80;4.70;;;27.10;87.90;;;;;;4952617;29;20445;-89
2021/08/10 08:40:38;;;;;;;4.60;4.10;;;27.80;84.80;;;;;;4956037;29;20434;-90
2021/08/10 08:43:05;;;;;;;5.33;4.23;;;27.60;83.40;;;;;;4969456;29;20464;-89
2021/08/10 08:45:34;;;;;;;9.63;5.80;;;27.70;83.50;;;;;;4979532;29;20445;-90
2021/08/10 08:48:03;;;;;;;8.47;4.20;;;27.90;82.70;;;;;;4962262;29;20461;-89
2021/08/10 08:50:32;;;;;;;4.93;3.90;;;28.70;81.10;;;;;;4958704;29;20489;-89
2021/08/10 08:53:03;;;;;;;4.57;4.17;;;30.60;75.60;;;;;;4954843;29;20460;-90
2021/08/10 08:55:33;;;;;;;6.03;4.70;;;30.30;71.90;;;;;;4950878;29;20550;-90
2021/08/10 08:58:01;;;;;;;5.00;4.40;;;30.30;72.00;;;;;;4951861;29;20450;-89
2021/08/10 09:03:12;;;;;;;4.60;4.20;;;30.70;68.10;;;;;;4937200;29;21055;-91
2021/08/10 09:05:40;;;;;;;4.83;4.20;;;30.40;70.00;;;;;;4948778;29;20444;-90
2021/08/10 09:08:33;;;;;;;6.70;4.30;;;30.50;67.90;;;;;;4956767;28;20539;-90
2021/08/10 09:11:03;;;;;;;4.13;3.63;;;29.30;69.10;;;;;;4955296;29;20457;-91
2021/08/10 09:13:31;;;;;;;5.33;3.63;;;28.70;71.70;;;;;;4939761;29;20482;-92
2021/08/10 09:16:02;;;;;;;5.00;4.07;;;28.30;72.80;;;;;;4940271;29;20913;-91
2021/08/10 09:18:37;;;;;;;7.33;5.13;;;28.20;74.10;;;;;;4940168;29;20461;-91
2021/08/10 09:21:10;;;;;;;3.93;3.57;;;28.40;74.30;;;;;;4958098;29;20466;-91
2021/08/10 09:23:53;;;;;;;3.53;3.23;;;28.60;72.20;;;;;;4967686;28;20452;-89
2021/08/10 09:26:25;;;;;;;3.63;3.30;;;28.10;73.90;;;;;;4968252;29;20432;-91
2021/08/10 09:31:41;;;;;;;4.73;4.33;;;28.00;73.20;;;;;;4977978;28;20429;-90
2021/08/10 09:34:23;;;;;;;4.30;3.63;;;27.40;73.50;;;;;;4965904;29;20511;-88
2021/08/10 09:36:57;;;;;;;4.40;4.00;;;27.10;74.70;;;;;;4960139;29;20459;-90
2021/08/10 09:39:38;;;;;;;4.43;3.40;;;27.30;76.10;;;;;;4959961;28;20462;-90
2021/08/10 09:42:18;;;;;;;5.10;3.30;;;27.60;74.10;;;;;;4969195;29;20472;-89
2021/08/10 09:45:24;;;;;;;;;;;;;;;;;;;;;
2021/08/10 09:50:41;;;;;;;5.63;3.10;;;28.60;71.80;;;;;;4948663;28;20529;-90
2021/08/10 09:53:25;;;;;;;8.00;3.30;;;28.20;70.80;;;;;;4955509;28;20900;-90
2021/08/10 09:56:05;;;;;;;4.93;3.23;;;28.40;72.40;;;;;;4955739;28;20872;-89
2021/08/10 09:58:59;;;;;;;3.60;2.90;;;28.20;72.60;;;;;;4955672;29;20475;-90
2021/08/10 10:01:34;;;;;;;3.80;3.37;;;28.90;70.20;;;;;;4936580;29;20449;-87
2021/08/10 10:04:15;;;;;;;8.30;3.67;;;29.20;69.90;;;;;;4935869;29;20472;-86
2021/08/10 10:06:54;;;;;;;4.10;3.07;;;29.40;67.70;;;;;;4950054;29;20448;-88
2021/08/10 10:09:22;;;;;;;4.17;3.17;;;28.90;68.90;;;;;;4973939;29;20468;-87
2021/08/10 10:11:50;;;;;;;4.90;3.40;;;28.70;69.50;;;;;;4958654;29;20459;-87
2021/08/10 10:14:18;;;;;;;2.90;2.70;;;29.00;70.20;;;;;;4955225;29;20480;-88
2021/08/10 10:16:49;;;;;;;6.20;3.60;;;29.20;69.20;;;;;;4952236;29;20469;-86
2021/08/10 10:19:17;;;;;;;4.70;3.10;;;29.30;67.80;;;;;;4937277;29;20446;-87
2021/08/10 10:21:47;;;;;;;3.23;2.80;;;29.80;66.60;;;;;;4938872;29;20465;-87
2021/08/10 10:24:16;;;;;;;5.20;3.20;;;30.30;65.30;;;;;;4935621;29;20469;-88
2021/08/10 10:26:45;;;;;;;3.43;3.13;;;30.20;64.90;;;;;;4937020;29;20446;-87
2021/08/10 10:29:14;;;;;;;3.10;2.80;;;30.30;64.60;;;;;;4937763;29;20858;-88
2021/08/10 10:31:42;;;;;;;5.00;3.07;;;30.20;61.80;;;;;;4937485;29;20453;-87
2021/08/10 10:34:12;;;;;;;3.10;2.80;;;30.20;61.90;;;;;;4939284;29;20489;-88
2021/08/10 10:36:41;;;;;;;3.53;3.17;;;30.20;61.70;;;;;;4940784;29;20500;-88
2021/08/10 10:39:08;;;;;;;4.83;3.73;;;30.20;61.50;;;;;;4940586;29;20450;-89
2021/08/10 10:41:38;;;;;;;6.53;3.57;;;30.40;63.40;;;;;;4939170;29;20453;-87
2021/08/10 10:44:06;;;;;;;4.23;3.07;;;30.70;61.80;;;;;;4940369;29;20484;-88
2021/08/10 10:46:35;;;;;;;5.10;2.87;;;29.70;59.40;;;;;;4939667;29;20896;-87
2021/08/10 10:49:02;;;;;;;2.87;2.57;;;29.10;62.80;;;;;;4944434;29;21032;-88
2021/08/10 10:51:31;;;;;;;4.30;2.50;;;28.90;60.80;;;;;;4974125;29;20452;-89
2021/08/10 10:54:22;;;;;;;5.27;3.00;;;28.70;62.20;;;;;;4963173;29;20560;-87
2021/08/10 10:56:51;;;;;;;3.93;3.63;;;28.60;63.80;;;;;;4951829;29;20986;-87
2021/08/10 10:59:27;;;;;;;3.37;2.43;;;29.10;61.80;;;;;;4946346;29;20437;-87
2021/08/10 11:02:13;;;;;;;3.37;2.30;;;29.10;59.40;;;;;;4950386;29;20452;-87
2021/08/10 11:05:00;;;;;;;2.30;2.10;;;29.00;59.80;;;;;;4948907;29;20475;-87
2021/08/10 11:07:37;;;;;;;3.00;2.30;;;29.60;59.30;;;;;;4947892;29;20467;-88
2021/08/10 11:10:05;;;;;;;3.47;2.30;;;29.00;59.00;;;;;;4948048;29;20484;-87
2021/08/10 11:12:42;;;;;;;3.57;2.70;;;29.10;60.80;;;;;;4950677;29;20452;-87
2021/08/10 11:15:10;;;;;;;5.20;3.27;;;29.50;60.90;;;;;;4948015;29;20894;-87
2021/08/10 11:17:37;;;;;;;2.80;2.40;;;29.70;59.80;;;;;;4948499;29;20452;-88
2021/08/10 11:20:25;;;;;;;4.20;2.30;;;30.00;59.30;;;;;;4949516;29;20443;-88
2021/08/10 11:23:12;;;;;;;5.13;2.87;;;30.10;59.00;;;;;;4965443;29;20441;-88
2021/08/10 11:25:40;;;;;;;2.50;2.30;;;30.10;58.70;;;;;;4947398;29;20978;-87
2021/08/10 11:28:24;;;;;;;3.83;2.17;;;30.40;58.30;;;;;;4955746;29;20441;-87
2021/08/10 11:30:52;;;;;;;2.90;2.20;;;29.90;58.20;;;;;;4948300;29;20442;-88
2021/08/10 11:33:41;;;;;;;3.20;2.77;;;29.80;59.20;;;;;;4950719;28;20479;-87
2021/08/10 11:36:22;;;;;;;2.83;2.63;;;29.90;60.20;;;;;;4947815;29;20442;-87
2021/08/10 11:39:07;;;;;;;4.37;3.20;;;30.30;58.40;;;;;;4947412;29;20942;-87
2021/08/10 11:41:37;;;;;;;4.27;2.90;;;30.60;58.20;;;;;;4946681;29;20448;-87
2021/08/10 11:44:05;;;;;;;2.93;2.60;;;31.30;57.50;;;;;;4955519;28;20472;-87
2021/08/10 11:46:33;;;;;;;3.40;3.10;;;31.30;56.80;;;;;;4957228;29;20862;-87
2021/08/10 11:49:03;;;;;;;4.13;2.60;;;31.80;55.80;;;;;;4956828;29;20485;-87
2021/08/10 11:51:34;;;;;;;4.77;2.70;;;32.10;54.90;;;;;;4957029;29;20452;-88
2021/08/10 11:54:07;;;;;;;3.33;2.63;;;31.70;55.20;;;;;;4956564;28;20516;-88
2021/08/10 11:56:37;;;;;;;2.63;2.40;;;31.30;55.30;;;;;;4971810;28;20413;-90
2021/08/10 11:59:05;;;;;;;2.70;2.50;;;30.70;56.70;;;;;;4981008;28;20442;-90
2021/08/10 12:01:36;;;;;;;3.07;2.70;;;30.60;57.00;;;;;;4961791;29;20453;-88
2021/08/10 12:04:12;;;;;;;2.73;2.43;;;30.80;57.00;;;;;;4957048;28;20477;-87
2021/08/10 12:06:39;;;;;;;4.90;3.43;;;31.00;56.30;;;;;;4948854;29;20450;-87
2021/08/10 12:09:06;;;;;;;2.90;2.70;;;31.00;56.30;;;;;;4944160;29;21013;-87
2021/08/10 12:11:35;;;;;;;4.03;2.47;;;31.30;56.00;;;;;;4948364;29;20968;-87
2021/08/10 12:14:12;;;;;;;3.40;2.20;;;32.30;55.40;;;;;;4952987;29;20465;-88
2021/08/10 12:16:39;;;;;;;3.27;2.80;;;32.90;54.20;;;;;;4956445;29;20824;-88
2021/08/10 12:19:06;;;;;;;4.07;2.57;;;32.90;54.00;;;;;;4960520;29;20457;-89
2021/08/10 12:21:43;;;;;;;4.53;2.80;;;32.60;54.60;;;;;;4957935;29;20471;-86
2021/08/10 12:24:26;;;;;;;5.10;2.77;;;32.30;54.70;;;;;;4958778;29;20539;-87
2021/08/10 12:26:54;;;;;;;3.60;3.00;;;31.70;55.50;;;;;;4958412;28;20440;-88
2021/08/10 12:29:21;;;;;;;3.00;2.70;;;31.10;56.60;;;;;;4958730;29;20484;-88
2021/08/10 12:31:48;;;;;;;3.10;2.73;;;30.90;56.90;;;;;;4972067;28;20504;-86
2021/08/10 12:34:15;;;;;;;3.87;2.77;;;30.80;57.70;;;;;;4974042;29;20484;-87
2021/08/10 12:36:52;;;;;;;5.07;3.03;;;31.10;56.80;;;;;;4966845;29;20453;-87
2021/08/10 12:39:19;;;;;;;5.77;2.73;;;31.80;56.50;;;;;;4961798;29;20444;-87
2021/08/10 12:41:47;;;;;;;4.03;3.63;;;31.40;55.70;;;;;;4973911;29;20468;-86
2021/08/10 12:44:15;;;;;;;3.77;2.90;;;30.90;56.70;;;;;;4973116;28;20468;-85
2021/08/10 12:46:43;;;;;;;3.57;3.23;;;31.10;57.00;;;;;;4976352;29;20452;-86
2021/08/10 12:49:13;;;;;;;3.00;2.47;;;31.60;56.30;;;;;;4978040;29;20473;-86
2021/08/10 12:51:57;;;;;;;6.60;3.50;;;32.10;55.40;;;;;;4959301;29;20449;-87
2021/08/10 12:54:26;;;;;;;4.00;2.47;;;33.10;54.40;;;;;;4950310;29;20466;-86
2021/08/10 12:56:54;;;;;;;4.43;3.10;;;33.40;53.60;;;;;;4938327;29;20462;-86
2021/08/10 12:59:42;;;;;;;5.00;2.60;;;34.00;51.60;;;;;;4953810;29;20456;-87
2021/08/10 13:02:10;;;;;;;3.60;3.30;;;35.80;50.30;;;;;;4950412;29;20441;-87
2021/08/10 13:04:38;;;;;;;4.47;2.53;;;36.60;47.60;;;;;;4948299;29;21005;-88
2021/08/10 13:07:12;;;;;;;3.53;2.50;;;37.50;46.10;;;;;;4955874;29;20452;-87
2021/08/10 13:09:54;;;;;;;3.83;2.30;;;37.60;44.50;;;;;;4955291;29;20491;-89
2021/08/10 13:12:21;;;;;;;4.33;2.30;;;36.70;45.60;;;;;;4955652;29;20810;-87
2021/08/10 13:15:07;;;;;;;3.47;2.70;;;36.40;45.40;;;;;;4955957;28;20472;-87
2021/08/10 13:17:39;;;;;;;3.37;2.60;;;35.90;46.00;;;;;;4960653;29;20445;-89
2021/08/10 13:20:12;;;;;;;4.40;2.80;;;35.40;46.90;;;;;;4940389;29;20458;-87
2021/08/10 13:22:40;;;;;;;5.00;3.00;;;34.60;47.90;;;;;;4938358;29;20670;-86
2021/08/10 13:25:08;;;;;;;4.40;3.10;;;34.20;48.70;;;;;;4955448;28;20842;-86
2021/08/10 13:27:35;;;;;;;2.90;2.57;;;33.20;49.70;;;;;;4955562;29;20456;-87
2021/08/10 13:30:03;;;;;;;3.90;2.60;;;32.40;50.80;;;;;;4955322;29;21061;-87
2021/08/10 13:32:30;;;;;;;3.70;2.93;;;31.70;52.60;;;;;;4947179;29;20461;-87
2021/08/10 13:34:57;;;;;;;3.33;2.97;;;31.10;54.20;;;;;;4954979;28;20484;-87
2021/08/10 13:37:23;;;;;;;4.50;3.07;;;30.90;54.20;;;;;;4952896;29;20452;-87
2021/08/10 13:39:50;;;;;;;3.17;2.70;;;31.60;54.10;;;;;;4953482;29;20517;-88
2021/08/10 13:42:17;;;;;;;3.10;2.60;;;31.60;53.90;;;;;;4955204;29;20457;-87
2021/08/10 13:44:44;;;;;;;4.57;2.77;;;31.60;53.90;;;;;;4955004;28;20523;-87
2021/08/10 13:47:12;;;;;;;3.23;2.90;;;32.00;54.20;;;;;;4955247;29;20946;-87
2021/08/10 13:49:38;;;;;;;5.73;3.30;;;32.70;52.10;;;;;;4954795;29;20484;-88
2021/08/10 13:52:06;;;;;;;4.53;4.00;;;32.60;51.90;;;;;;4954749;29;20448;-87